REX weather

General Lucio Blanco International Airport
Reynosa, Tamaulipas, Mexico

Public forecast

Using degrees Celsius for public forecast. Weather courtesy of forecast.io.

Current aviation weather report (METAR) for General Lucio Blanco International Airport

Retrieved 2019/10/20 22:49 UTC (54 minutes ago):

MMRX 202249Z 13010G20KT 6SM OVC080 28/24 A2971 RMK 8/02/ HZ OCNL DROPS

Aviation forecast (TAF) for General Lucio Blanco International Airport

Retrieved 2019/10/20 18:22 UTC (5 hours ago):

TAF MMRX 201715Z 2018/2118 14012KT 6SM RA OVC025 TEMPO 2018/2022 3SM TSRA BKN015CB FM210300 14010KT P6SM BKN015 BKN080 PROB40 2108/2112 3SM TSRA BKN010CB FM211200 12010KT 3SM BR OVC015